createdAt,value
2023-08-30T00:01:36.322Z,35.40
2023-08-30T00:04:03.694Z,30.20
2023-08-30T00:06:32.731Z,30.50
2023-08-30T00:09:00.121Z,33.10
2023-08-30T00:11:28.181Z,32.90
2023-08-30T00:14:07.724Z,28.90
2023-08-30T00:16:35.489Z,29.00
2023-08-30T00:19:03.061Z,29.00
2023-08-30T00:21:30.982Z,33.80
2023-08-30T00:23:58.503Z,29.40
2023-08-30T00:26:26.333Z,29.60
2023-08-30T00:28:55.557Z,29.00
2023-08-30T00:31:23.339Z,30.90
2023-08-30T00:33:50.997Z,31.70
2023-08-30T00:36:19.324Z,30.30
2023-08-30T00:38:46.918Z,32.20
2023-08-30T00:41:14.338Z,33.40
2023-08-30T00:43:43.012Z,31.70
2023-08-30T00:46:10.572Z,31.60
2023-08-30T00:48:38.097Z,33.10
2023-08-30T00:51:05.531Z,32.80
2023-08-30T00:53:33.713Z,31.30
2023-08-30T00:56:01.200Z,33.30
2023-08-30T00:58:29.128Z,40.80
2023-08-30T01:00:56.618Z,29.70
2023-08-30T01:03:24.137Z,31.40
2023-08-30T01:05:51.859Z,31.10
2023-08-30T01:08:19.369Z,31.50
2023-08-30T01:10:56.563Z,32.00
2023-08-30T01:13:24.060Z,31.10
2023-08-30T01:15:52.285Z,34.10
2023-08-30T01:20:50.696Z,28.80
2023-08-30T01:23:43.695Z,29.30
2023-08-30T01:26:14.624Z,30.50
2023-08-30T01:28:43.605Z,32.30
2023-08-30T01:31:11.194Z,30.20
2023-08-30T01:33:38.896Z,31.80
2023-08-30T01:36:06.335Z,32.70
2023-08-30T01:38:34.299Z,32.60
2023-08-30T01:41:02.865Z,33.00
2023-08-30T01:43:30.694Z,33.70
2023-08-30T01:45:58.479Z,34.30
2023-08-30T01:48:25.955Z,31.70
2023-08-30T01:50:55.489Z,31.40
2023-08-30T01:53:23.029Z,31.20
2023-08-30T01:55:50.478Z,32.90
2023-08-30T01:58:17.817Z,29.80
2023-08-30T02:00:45.155Z,30.60
2023-08-30T02:03:13.200Z,33.40
2023-08-30T02:06:05.276Z,37.20
2023-08-30T02:08:39.420Z,38.80
2023-08-30T02:11:12.806Z,32.10
2023-08-30T02:13:40.244Z,34.50
2023-08-30T02:16:07.594Z,36.10
2023-08-30T02:18:35.345Z,33.30
2023-08-30T02:21:02.616Z,31.80
2023-08-30T02:23:30.058Z,31.10
2023-08-30T02:25:58.210Z,31.80
2023-08-30T02:28:25.693Z,31.10
2023-08-30T02:30:53.961Z,31.70
2023-08-30T02:33:22.071Z,35.60
2023-08-30T02:35:49.388Z,33.20
2023-08-30T02:38:16.841Z,30.50
2023-08-30T02:40:44.416Z,37.50
2023-08-30T02:43:12.006Z,35.10
2023-08-30T02:45:39.401Z,31.50
2023-08-30T02:48:07.504Z,36.30
2023-08-30T02:50:35.443Z,34.70
2023-08-30T02:53:03.093Z,33.20
2023-08-30T02:55:31.812Z,35.90
2023-08-30T02:57:59.282Z,32.90
2023-08-30T03:00:27.928Z,35.50
2023-08-30T03:02:56.486Z,34.30
2023-08-30T03:05:24.130Z,31.20
2023-08-30T03:07:52.142Z,33.30
2023-08-30T03:10:19.761Z,35.80
2023-08-30T03:12:48.168Z,32.70
2023-08-30T03:15:15.609Z,35.40
2023-08-30T03:17:43.127Z,32.60
2023-08-30T03:20:11.376Z,37.30
2023-08-30T03:22:38.684Z,33.10
2023-08-30T03:25:07.404Z,35.90
2023-08-30T03:27:34.889Z,31.80
2023-08-30T03:30:04.232Z,33.00
2023-08-30T03:32:33.740Z,31.30
2023-08-30T03:35:01.481Z,33.70
2023-08-30T03:37:28.829Z,33.10
2023-08-30T03:39:56.321Z,34.70
2023-08-30T03:42:24.404Z,35.10
2023-08-30T03:44:51.782Z,34.80
2023-08-30T03:47:18.973Z,29.20
2023-08-30T03:49:46.365Z,33.10
2023-08-30T03:52:14.722Z,32.90
2023-08-30T03:54:42.254Z,34.60
2023-08-30T03:57:09.607Z,36.30
2023-08-30T03:59:36.969Z,31.80
2023-08-30T04:02:04.514Z,35.20
2023-08-30T04:04:32.640Z,33.20
2023-08-30T04:06:59.953Z,35.40
2023-08-30T04:09:28.060Z,36.70
2023-08-30T04:11:55.477Z,29.30
2023-08-30T04:14:24.833Z,35.10
2023-08-30T04:16:53.427Z,31.80
2023-08-30T04:19:20.712Z,37.50
2023-08-30T04:21:48.064Z,40.50
2023-08-30T04:24:15.976Z,42.00
2023-08-30T04:26:44.321Z,46.50
2023-08-30T04:29:12.128Z,45.80
2023-08-30T04:31:39.671Z,44.30
2023-08-30T04:34:07.048Z,42.20
2023-08-30T04:36:34.390Z,39.40
2023-08-30T04:39:03.369Z,33.20
2023-08-30T04:44:02.053Z,29.30
2023-08-30T04:46:30.642Z,32.90
2023-08-30T04:48:57.930Z,30.20
2023-08-30T04:51:25.295Z,33.80
2023-08-30T04:53:52.795Z,37.90
2023-08-30T04:56:20.169Z,35.10
2023-08-30T04:58:47.677Z,32.60
2023-08-30T05:01:15.555Z,35.50
2023-08-30T05:03:46.345Z,37.40
2023-08-30T05:06:16.982Z,42.70
2023-08-30T05:08:44.863Z,38.60
2023-08-30T05:11:12.610Z,38.80
2023-08-30T05:13:40.006Z,36.70
2023-08-30T05:16:07.568Z,39.00
2023-08-30T05:18:35.360Z,32.00
2023-08-30T05:21:06.216Z,36.10
2023-08-30T05:23:33.820Z,35.20
2023-08-30T05:26:01.406Z,34.10
2023-08-30T05:28:28.990Z,31.50
2023-08-30T05:30:57.677Z,30.80
2023-08-30T05:33:51.265Z,31.90
2023-08-30T05:36:45.061Z,28.90
2023-08-30T05:39:47.641Z,32.70
2023-08-30T05:42:15.169Z,29.70
2023-08-30T05:44:42.354Z,29.40
2023-08-30T05:47:15.588Z,29.30
2023-08-30T05:49:43.110Z,27.90
2023-08-30T05:52:10.432Z,24.00
2023-08-30T05:54:37.905Z,28.60
2023-08-30T05:57:05.599Z,27.80
2023-08-30T05:59:32.991Z,28.90
2023-08-30T06:02:00.270Z,27.50
2023-08-30T06:04:27.744Z,25.60
2023-08-30T06:06:55.163Z,26.00
2023-08-30T06:09:23.041Z,23.40
2023-08-30T06:11:50.486Z,26.50
2023-08-30T06:14:17.825Z,23.40
2023-08-30T06:16:45.381Z,25.70
2023-08-30T06:19:12.844Z,23.20
2023-08-30T06:21:40.187Z,19.00
2023-08-30T06:24:08.000Z,20.90
2023-08-30T06:26:35.235Z,22.30
2023-08-30T06:29:05.286Z,19.90
2023-08-30T06:31:33.427Z,25.90
2023-08-30T06:34:01.293Z,22.50
2023-08-30T06:36:28.767Z,19.90
2023-08-30T06:38:56.216Z,21.30
2023-08-30T06:41:24.289Z,21.10
2023-08-30T06:43:51.693Z,22.80
2023-08-30T06:46:19.055Z,22.90
2023-08-30T06:48:46.373Z,24.10
2023-08-30T06:51:13.592Z,20.00
2023-08-30T06:53:41.109Z,21.00
2023-08-30T06:56:08.372Z,25.60
2023-08-30T06:58:35.822Z,23.20
2023-08-30T07:01:04.223Z,18.20
2023-08-30T07:03:32.697Z,20.90
2023-08-30T07:06:00.004Z,18.80
2023-08-30T07:08:27.583Z,17.70
2023-08-30T07:10:54.861Z,18.30
2023-08-30T07:13:22.056Z,22.30
2023-08-30T07:15:49.987Z,19.50
2023-08-30T07:18:17.340Z,15.50
2023-08-30T07:20:45.114Z,19.50
2023-08-30T07:23:12.518Z,23.40
2023-08-30T07:25:40.009Z,18.80
2023-08-30T07:28:07.769Z,19.70
2023-08-30T07:30:36.023Z,17.90
2023-08-30T07:33:05.109Z,17.20
2023-08-30T07:35:33.725Z,17.50
2023-08-30T07:38:01.447Z,16.60
2023-08-30T07:40:29.824Z,16.70
2023-08-30T07:42:59.601Z,17.00
2023-08-30T07:45:28.054Z,18.10
2023-08-30T07:47:55.839Z,16.50
2023-08-30T07:50:23.275Z,15.40
2023-08-30T07:52:50.677Z,19.20
2023-08-30T07:55:17.947Z,15.80
2023-08-30T07:57:45.470Z,16.60
2023-08-30T08:00:13.657Z,21.20
2023-08-30T08:02:46.010Z,15.30
2023-08-30T08:05:13.881Z,13.90
2023-08-30T08:07:43.266Z,14.10
2023-08-30T08:10:10.979Z,15.10
2023-08-30T08:12:39.161Z,16.20
2023-08-30T08:15:07.323Z,14.60
2023-08-30T08:17:34.821Z,16.30
2023-08-30T08:20:02.206Z,18.20
2023-08-30T08:22:29.761Z,21.80
2023-08-30T08:24:57.890Z,18.10
2023-08-30T08:27:28.500Z,19.30
2023-08-30T08:32:23.493Z,17.10
2023-08-30T08:34:50.766Z,16.70
2023-08-30T08:37:17.981Z,19.70
2023-08-30T08:39:47.118Z,19.60
2023-08-30T08:42:17.174Z,16.70
2023-08-30T08:44:44.785Z,16.20
2023-08-30T08:47:12.094Z,16.60
2023-08-30T08:49:40.180Z,17.30
2023-08-30T08:52:19.601Z,16.70
2023-08-30T08:54:51.554Z,19.80
2023-08-30T08:57:20.101Z,20.80
2023-08-30T08:59:47.412Z,16.10
2023-08-30T09:02:15.333Z,16.50
2023-08-30T09:04:42.715Z,17.60
2023-08-30T09:07:10.041Z,18.20
2023-08-30T09:09:37.638Z,18.90
2023-08-30T09:12:05.186Z,20.00
2023-08-30T09:14:32.987Z,17.70
2023-08-30T09:17:01.896Z,19.90
2023-08-30T09:19:30.721Z,17.40
2023-08-30T09:21:59.316Z,16.30
2023-08-30T09:24:27.013Z,18.20
2023-08-30T09:26:55.218Z,16.90
2023-08-30T09:29:24.212Z,19.10
2023-08-30T09:31:54.613Z,15.70
2023-08-30T09:34:27.061Z,16.10
2023-08-30T09:36:54.911Z,15.00
2023-08-30T09:39:22.662Z,18.20
2023-08-30T09:41:51.140Z,15.40
2023-08-30T09:44:21.927Z,18.20
2023-08-30T09:46:55.681Z,20.90
2023-08-30T09:49:25.274Z,30.60
2023-08-30T09:51:54.214Z,35.80
2023-08-30T09:54:39.227Z,25.70
2023-08-30T09:57:08.291Z,19.30
2023-08-30T09:59:35.979Z,16.40
2023-08-30T10:02:05.448Z,13.70
2023-08-30T10:04:33.851Z,16.80
2023-08-30T10:07:01.340Z,13.30
2023-08-30T10:09:29.011Z,14.00
2023-08-30T10:11:56.491Z,12.10
2023-08-30T10:14:23.895Z,15.80
2023-08-30T10:16:51.234Z,17.90
2023-08-30T10:19:25.539Z,19.50
2023-08-30T10:22:06.876Z,19.00
2023-08-30T10:24:52.256Z,17.10
2023-08-30T10:27:25.221Z,13.70
2023-08-30T10:29:52.724Z,17.60
2023-08-30T10:32:23.261Z,13.90
2023-08-30T10:34:51.178Z,16.00
2023-08-30T10:37:25.329Z,18.20
2023-08-30T10:39:52.538Z,14.80
2023-08-30T10:42:23.243Z,18.50
2023-08-30T10:47:41.463Z,19.30
2023-08-30T10:50:12.870Z,18.10
2023-08-30T10:52:40.805Z,13.40
2023-08-30T10:55:12.027Z,15.50
2023-08-30T10:57:43.188Z,11.50
2023-08-30T11:02:47.139Z,15.00
2023-08-30T11:05:16.427Z,15.60
2023-08-30T11:07:44.408Z,16.40
2023-08-30T11:10:12.142Z,20.80
2023-08-30T11:12:46.718Z,13.60
2023-08-30T11:15:17.669Z,14.80
2023-08-30T11:20:14.585Z,14.30
2023-08-30T11:22:46.542Z,17.60
2023-08-30T11:25:15.279Z,16.10
2023-08-30T11:27:42.590Z,16.90
2023-08-30T11:30:11.000Z,16.40
2023-08-30T11:32:39.828Z,14.30
2023-08-30T11:35:07.990Z,13.40
2023-08-30T11:37:35.729Z,13.20
2023-08-30T11:40:04.574Z,18.00
2023-08-30T11:42:32.534Z,16.50
2023-08-30T11:45:03.577Z,11.60
2023-08-30T11:47:31.215Z,17.50
2023-08-30T11:49:58.543Z,15.40
2023-08-30T11:52:26.495Z,15.90
2023-08-30T12:07:28.134Z,12.80
2023-08-30T12:10:10.057Z,15.00
2023-08-30T12:12:38.576Z,15.70
2023-08-30T12:15:13.636Z,12.90
2023-08-30T12:17:41.680Z,12.40
2023-08-30T12:20:18.624Z,13.80
2023-08-30T12:22:46.681Z,14.40
2023-08-30T12:25:34.103Z,13.20
2023-08-30T12:28:02.096Z,13.20
2023-08-30T12:30:30.108Z,17.20
2023-08-30T12:33:05.154Z,15.50
2023-08-30T12:35:33.835Z,12.30
2023-08-30T12:38:01.807Z,13.50
2023-08-30T12:40:30.033Z,15.20
2023-08-30T12:42:58.233Z,18.70
2023-08-30T12:45:26.286Z,17.50
2023-08-30T12:47:54.436Z,15.00
2023-08-30T12:50:23.308Z,14.00
2023-08-30T12:52:51.276Z,16.60
2023-08-30T12:55:20.730Z,17.10
2023-08-30T12:57:48.791Z,16.40
2023-08-30T13:00:17.057Z,14.90
2023-08-30T13:02:45.196Z,14.90
2023-08-30T13:05:13.373Z,14.20
2023-08-30T13:07:41.464Z,11.00
2023-08-30T13:10:09.962Z,17.10
2023-08-30T13:12:40.275Z,12.60
2023-08-30T13:15:10.791Z,12.30
2023-08-30T13:17:39.057Z,16.50
2023-08-30T13:20:07.725Z,16.70
2023-08-30T13:22:35.716Z,11.80
2023-08-30T13:25:05.298Z,14.50
2023-08-30T13:27:33.422Z,14.80
2023-08-30T13:30:01.472Z,15.60
2023-08-30T13:32:29.683Z,15.00
2023-08-30T13:34:57.831Z,17.40
2023-08-30T13:37:25.949Z,12.00
2023-08-30T13:39:55.237Z,12.50
2023-08-30T13:42:24.333Z,14.90
2023-08-30T13:44:52.813Z,17.20
2023-08-30T13:47:21.523Z,15.00
2023-08-30T13:49:49.564Z,15.90
2023-08-30T13:52:17.644Z,13.10
2023-08-30T13:54:45.725Z,15.00
2023-08-30T13:57:13.720Z,15.10
2023-08-30T13:59:41.830Z,13.40
2023-08-30T14:02:09.938Z,14.20
2023-08-30T14:04:38.935Z,16.50
2023-08-30T14:07:07.480Z,18.60
2023-08-30T14:09:35.644Z,11.90
2023-08-30T14:12:05.385Z,13.20
2023-08-30T14:14:34.275Z,15.70
2023-08-30T14:17:02.409Z,12.30
2023-08-30T14:19:30.413Z,17.70
2023-08-30T14:21:59.782Z,16.00
2023-08-30T14:24:27.836Z,14.60
2023-08-30T14:26:55.940Z,15.30
2023-08-30T14:29:24.103Z,15.60
2023-08-30T14:31:52.500Z,13.20
2023-08-30T14:34:22.143Z,17.90
2023-08-30T14:36:50.246Z,14.30
2023-08-30T14:39:18.414Z,16.30
2023-08-30T14:41:46.553Z,17.70
2023-08-30T14:44:14.589Z,18.00
2023-08-30T14:46:42.623Z,11.90
2023-08-30T14:49:10.835Z,16.50
2023-08-30T14:51:38.819Z,12.80
2023-08-30T14:54:06.880Z,11.20
2023-08-30T14:56:35.265Z,20.00
2023-08-30T14:59:03.274Z,11.60
2023-08-30T15:01:31.328Z,12.70
2023-08-30T15:03:59.659Z,13.00
2023-08-30T15:06:27.880Z,16.30
2023-08-30T15:08:56.008Z,13.00
2023-08-30T15:11:24.020Z,15.30
2023-08-30T15:13:52.018Z,11.20
2023-08-30T15:16:20.069Z,11.50
2023-08-30T15:18:48.110Z,11.10
2023-08-30T15:21:16.203Z,14.30
2023-08-30T15:23:44.210Z,17.10
2023-08-30T15:26:17.649Z,16.40
2023-08-30T15:28:48.485Z,14.10
2023-08-30T15:31:17.458Z,15.50
2023-08-30T15:33:45.657Z,12.40
2023-08-30T15:36:13.940Z,15.50
2023-08-30T15:38:46.482Z,14.00
2023-08-30T15:41:14.582Z,13.20
2023-08-30T15:43:42.710Z,13.00
2023-08-30T15:46:11.583Z,16.80
2023-08-30T15:48:40.495Z,13.70
2023-08-30T15:51:12.480Z,15.40
2023-08-30T15:53:49.080Z,14.40
2023-08-30T15:56:17.250Z,16.30
2023-08-30T15:58:45.210Z,14.90
2023-08-30T16:01:14.893Z,16.60
2023-08-30T16:03:43.781Z,15.50
2023-08-30T16:06:12.219Z,16.60
2023-08-30T16:08:40.235Z,12.30
2023-08-30T16:11:08.848Z,17.30
2023-08-30T16:13:36.851Z,17.90
2023-08-30T16:16:04.982Z,18.30
2023-08-30T16:18:33.527Z,20.60
2023-08-30T16:21:01.701Z,26.40
2023-08-30T16:23:30.740Z,18.20
2023-08-30T16:25:59.673Z,18.40
2023-08-30T16:28:27.875Z,19.40
2023-08-30T16:31:00.974Z,22.70
2023-08-30T16:33:29.230Z,18.60
2023-08-30T16:35:59.181Z,21.50
2023-08-30T16:38:27.582Z,20.40
2023-08-30T16:40:55.784Z,21.30
2023-08-30T16:43:23.902Z,15.40
2023-08-30T16:45:52.041Z,18.60
2023-08-30T16:48:20.411Z,19.80
2023-08-30T16:50:49.036Z,15.40
2023-08-30T16:53:16.998Z,18.90
2023-08-30T16:55:45.110Z,19.00
2023-08-30T16:58:14.436Z,21.60
2023-08-30T17:00:42.640Z,21.60
2023-08-30T17:03:11.305Z,21.30
2023-08-30T17:05:41.471Z,20.60
2023-08-30T17:08:10.035Z,21.70
2023-08-30T17:10:38.442Z,22.20
2023-08-30T17:13:07.021Z,24.50
2023-08-30T17:15:35.269Z,24.30
2023-08-30T17:18:03.633Z,20.90
2023-08-30T17:20:33.399Z,19.20
2023-08-30T17:23:01.586Z,20.60
2023-08-30T17:25:29.933Z,22.10
2023-08-30T17:27:58.144Z,24.20
2023-08-30T17:30:26.282Z,24.60
2023-08-30T17:32:54.500Z,23.00
2023-08-30T17:35:22.823Z,17.80
2023-08-30T17:37:50.788Z,24.40
2023-08-30T17:40:19.223Z,23.90
2023-08-30T17:42:47.442Z,21.30
2023-08-30T17:45:25.024Z,20.80
2023-08-30T17:47:53.246Z,21.10
2023-08-30T17:50:21.542Z,23.80
2023-08-30T17:52:51.380Z,18.70
2023-08-30T17:55:19.986Z,24.50
2023-08-30T17:57:48.290Z,18.90
2023-08-30T18:00:17.077Z,20.70
2023-08-30T18:02:48.984Z,21.00
2023-08-30T18:05:17.984Z,15.80
2023-08-30T18:07:46.115Z,17.90
2023-08-30T18:10:14.257Z,17.50
2023-08-30T18:12:42.585Z,15.70
2023-08-30T18:15:11.418Z,13.90
2023-08-30T18:17:39.496Z,14.20
2023-08-30T18:20:10.062Z,16.10
2023-08-30T18:22:38.153Z,16.20
2023-08-30T18:25:06.549Z,13.50
2023-08-30T18:27:34.712Z,17.10
2023-08-30T18:30:05.510Z,14.50
2023-08-30T18:32:34.004Z,12.90
2023-08-30T18:35:02.785Z,13.10
2023-08-30T18:37:31.029Z,13.30
2023-08-30T18:39:59.122Z,16.60
2023-08-30T18:42:29.265Z,15.00
2023-08-30T18:44:57.433Z,16.60
2023-08-30T18:47:25.476Z,13.80
2023-08-30T18:49:54.566Z,17.80
2023-08-30T18:52:22.986Z,12.80
2023-08-30T18:54:51.666Z,13.40
2023-08-30T18:57:20.695Z,16.30
2023-08-30T18:59:49.103Z,15.40
2023-08-30T19:02:17.688Z,15.50
2023-08-30T19:04:46.222Z,13.90
2023-08-30T19:07:15.981Z,17.90
2023-08-30T19:09:49.809Z,15.00
2023-08-30T19:12:18.061Z,16.30
2023-08-30T19:14:46.223Z,17.40
2023-08-30T19:17:14.559Z,14.50
2023-08-30T19:19:42.916Z,19.00
2023-08-30T19:22:12.121Z,22.20
2023-08-30T19:24:40.466Z,20.50
2023-08-30T19:27:09.991Z,19.80
2023-08-30T19:29:39.646Z,17.70
2023-08-30T19:32:08.304Z,17.00
2023-08-30T19:34:36.625Z,15.30
2023-08-30T19:37:04.902Z,13.60
2023-08-30T19:39:33.405Z,17.10
2023-08-30T19:42:01.721Z,13.90
2023-08-30T19:44:29.985Z,15.80
2023-08-30T19:47:00.163Z,14.40
2023-08-30T19:49:28.450Z,19.20
2023-08-30T19:51:56.633Z,15.30
2023-08-30T19:54:24.898Z,17.80
2023-08-30T19:56:53.603Z,17.80
2023-08-30T19:59:21.753Z,17.00
2023-08-30T20:01:49.984Z,15.60
2023-08-30T20:04:18.467Z,17.90
2023-08-30T20:06:46.685Z,15.20
2023-08-30T20:09:15.003Z,14.80
2023-08-30T20:11:43.347Z,16.10
2023-08-30T20:14:11.524Z,16.70
2023-08-30T20:16:39.568Z,16.40
2023-08-30T20:19:07.742Z,14.80
2023-08-30T20:21:35.943Z,15.40
2023-08-30T20:24:05.082Z,14.80
2023-08-30T20:26:33.406Z,16.70
2023-08-30T20:29:01.518Z,16.40
2023-08-30T20:31:30.440Z,16.30
2023-08-30T20:33:58.600Z,14.10
2023-08-30T20:36:34.591Z,13.50
2023-08-30T20:39:07.505Z,13.90
2023-08-30T20:41:35.560Z,13.50
2023-08-30T20:44:04.796Z,17.40
2023-08-30T20:46:32.935Z,18.70
2023-08-30T20:49:01.098Z,15.30
2023-08-30T20:51:29.119Z,13.20
2023-08-30T20:54:02.509Z,15.00
2023-08-30T20:56:30.664Z,13.40
2023-08-30T20:59:01.893Z,13.40
2023-08-30T21:01:31.803Z,12.40
2023-08-30T21:04:00.325Z,17.00
2023-08-30T21:06:29.016Z,14.50
2023-08-30T21:08:58.198Z,16.10
2023-08-30T21:11:26.436Z,17.20
2023-08-30T21:13:54.645Z,12.70
2023-08-30T21:16:22.890Z,14.70
2023-08-30T21:18:51.068Z,16.60
2023-08-30T21:21:19.142Z,12.20
2023-08-30T21:23:47.195Z,14.00
2023-08-30T21:26:15.186Z,13.30
2023-08-30T21:28:43.179Z,16.20
2023-08-30T21:31:11.358Z,16.70
2023-08-30T21:33:39.605Z,17.80
2023-08-30T21:36:07.746Z,16.20
2023-08-30T21:38:35.846Z,16.60
2023-08-30T21:41:05.021Z,17.00
2023-08-30T21:43:33.112Z,17.00
2023-08-30T21:46:01.187Z,14.90
2023-08-30T21:48:29.329Z,17.60
2023-08-30T21:50:58.686Z,21.60
2023-08-30T21:53:27.134Z,19.40
2023-08-30T21:55:55.155Z,14.30
2023-08-30T21:58:23.548Z,17.50
2023-08-30T22:00:53.147Z,26.40
2023-08-30T22:03:21.237Z,15.70
2023-08-30T22:05:49.390Z,14.80
2023-08-30T22:08:17.467Z,17.30
2023-08-30T22:10:45.593Z,16.70
2023-08-30T22:13:13.821Z,17.80
2023-08-30T22:15:42.061Z,15.50
2023-08-30T22:18:10.092Z,15.50
2023-08-30T22:20:38.306Z,17.10
2023-08-30T22:23:06.733Z,17.20
2023-08-30T22:25:34.827Z,15.20
2023-08-30T22:28:04.214Z,14.60
2023-08-30T22:30:32.304Z,17.90
2023-08-30T22:33:00.442Z,16.90
2023-08-30T22:35:28.649Z,16.40
2023-08-30T22:37:57.131Z,15.00
2023-08-30T22:40:25.181Z,18.00
2023-08-30T22:42:54.028Z,16.70
2023-08-30T22:45:22.067Z,18.80
2023-08-30T22:47:50.714Z,15.40
2023-08-30T22:50:18.922Z,14.50
2023-08-30T22:52:47.105Z,20.30
2023-08-30T22:55:15.131Z,16.30
2023-08-30T22:57:43.152Z,16.40
2023-08-30T23:00:11.974Z,16.40
2023-08-30T23:02:40.290Z,16.50
2023-08-30T23:05:08.672Z,17.40
2023-08-30T23:07:36.727Z,17.70
2023-08-30T23:10:09.591Z,19.40
2023-08-30T23:12:39.356Z,16.30
2023-08-30T23:15:07.982Z,17.90
2023-08-30T23:17:46.158Z,16.50
2023-08-30T23:20:15.357Z,17.10
2023-08-30T23:22:43.547Z,17.50
2023-08-30T23:25:11.944Z,17.40
2023-08-30T23:27:40.042Z,17.80
2023-08-30T23:30:09.444Z,20.10
2023-08-30T23:32:37.748Z,18.70
2023-08-30T23:35:06.692Z,18.10
2023-08-30T23:37:34.701Z,17.60
2023-08-30T23:40:02.730Z,16.90
2023-08-30T23:42:31.797Z,19.90
2023-08-30T23:44:59.817Z,19.00
2023-08-30T23:47:28.506Z,17.70
2023-08-30T23:49:56.592Z,15.80
2023-08-30T23:52:25.136Z,17.00
2023-08-30T23:54:57.552Z,18.20
2023-08-30T23:57:25.806Z,21.60
2023-08-30T23:59:53.896Z,16.00
